Time;durP1;ratioP1;P1;durP2;ratioP2;P2;SDS_P1;SDS_P2;PMS_P1;PMS_P2;Temp;Humidity;BMP_temperature;BMP_pressure;BME280_temperature;BME280_humidity;BME280_pressure;Samples;Min_cycle;Max_cycle;Signal;HPM_P1;HPM_P2
2023/11/16 00:00:12;;;;;;;6.25;1.30;;;10.10;99.90;;;;;;5039603;28;20583;-78
2023/11/16 00:02:44;;;;;;;5.22;1.20;;;10.10;99.90;;;;;;5038866;28;20298;-78
2023/11/16 00:05:15;;;;;;;5.80;1.50;;;10.10;99.90;;;;;;5056089;28;20226;-78
2023/11/16 00:07:41;;;;;;;6.43;1.60;;;10.10;99.90;;;;;;5055904;28;20271;-78
2023/11/16 00:10:11;;;;;;;4.23;1.23;;;10.10;99.90;;;;;;5074019;28;20267;-78
2023/11/16 00:12:38;;;;;;;5.25;1.20;;;10.00;99.90;;;;;;5055586;28;20593;-78
2023/11/16 00:15:07;;;;;;;10.70;1.98;;;10.00;99.90;;;;;;5073542;28;20203;-78
2023/11/16 00:17:33;;;;;;;6.68;1.58;;;10.00;99.90;;;;;;5073569;28;20176;-78
2023/11/16 00:20:00;;;;;;;4.82;1.42;;;10.00;99.90;;;;;;5070709;28;20998;-78
2023/11/16 00:22:26;;;;;;;3.53;1.20;;;9.90;99.90;;;;;;5055156;28;20200;-78
2023/11/16 00:24:53;;;;;;;7.70;1.95;;;9.90;99.90;;;;;;5073075;28;20243;-78
2023/11/16 00:27:19;;;;;;;4.85;1.75;;;9.90;99.90;;;;;;5076553;28;20171;-78
2023/11/16 00:29:45;;;;;;;4.75;1.30;;;9.90;99.90;;;;;;5047207;28;20619;-78
2023/11/16 00:32:11;;;;;;;9.53;1.10;;;9.90;99.90;;;;;;5072029;28;20172;-78
2023/11/16 00:34:37;;;;;;;4.60;1.10;;;9.80;99.90;;;;;;5073395;28;21127;-78
2023/11/16 00:37:05;;;;;;;5.80;1.70;;;9.80;99.90;;;;;;5073157;28;20633;-78
2023/11/16 00:39:34;;;;;;;4.07;1.52;;;9.80;99.90;;;;;;5069555;28;20630;-78
2023/11/16 00:42:00;;;;;;;5.53;1.20;;;9.80;99.90;;;;;;5054560;28;20219;-78
2023/11/16 00:44:26;;;;;;;7.10;1.42;;;9.80;99.90;;;;;;5038274;28;20188;-78
2023/11/16 00:46:53;;;;;;;5.37;1.73;;;9.70;99.90;;;;;;5037164;28;20581;-78
2023/11/16 00:49:19;;;;;;;5.80;1.27;;;9.80;99.90;;;;;;5038019;28;20188;-78
2023/11/16 00:51:45;;;;;;;5.80;1.20;;;9.70;99.90;;;;;;5072499;28;20180;-78
2023/11/16 00:54:13;;;;;;;2.55;1.40;;;9.70;99.90;;;;;;5054481;28;20575;-78
2023/11/16 00:56:39;;;;;;;4.78;1.70;;;9.80;99.90;;;;;;5005221;28;20201;-78
2023/11/16 00:59:05;;;;;;;4.00;1.50;;;9.80;99.90;;;;;;5055150;28;20183;-78
2023/11/16 01:01:32;;;;;;;5.20;1.58;;;9.80;99.90;;;;;;5054594;28;20305;-78
2023/11/16 01:04:00;;;;;;;12.52;3.38;;;9.80;99.90;;;;;;5041252;28;20196;-78
2023/11/16 01:06:27;;;;;;;4.78;1.55;;;9.90;99.90;;;;;;5038154;28;20222;-78
2023/11/16 01:08:54;;;;;;;5.63;1.55;;;9.90;99.90;;;;;;5046964;28;20706;-77
2023/11/16 01:11:27;;;;;;;7.82;1.40;;;9.90;99.90;;;;;;5038048;28;20556;-77
2023/11/16 01:13:57;;;;;;;8.25;1.45;;;9.90;99.90;;;;;;5029872;28;20852;-77
2023/11/16 01:16:30;;;;;;;3.92;1.10;;;9.90;99.90;;;;;;5072328;28;20262;-77
2023/11/16 01:18:56;;;;;;;5.25;1.35;;;9.90;99.90;;;;;;5054699;28;20267;-77
2023/11/16 01:21:23;;;;;;;3.25;1.00;;;9.90;99.90;;;;;;5058181;28;20641;-78
2023/11/16 01:23:51;;;;;;;11.57;1.77;;;9.90;99.90;;;;;;5054180;28;20241;-78
2023/11/16 01:26:21;;;;;;;6.05;1.20;;;10.00;99.90;;;;;;5053953;28;20253;-78
2023/11/16 01:28:49;;;;;;;5.43;1.33;;;10.00;99.90;;;;;;5072021;28;20255;-78
2023/11/16 01:31:19;;;;;;;5.72;2.22;;;10.00;99.90;;;;;;5053861;28;20631;-77
2023/11/16 01:33:45;;;;;;;11.18;1.90;;;10.10;99.90;;;;;;5038505;28;20183;-77
2023/11/16 01:36:10;;;;;;;4.03;1.30;;;10.10;99.90;;;;;;5053810;28;20853;-77
2023/11/16 01:38:36;;;;;;;5.17;1.50;;;10.20;99.90;;;;;;5037500;28;20672;-77
2023/11/16 01:41:05;;;;;;;4.97;1.20;;;10.20;99.90;;;;;;5057179;28;20202;-77
2023/11/16 01:43:33;;;;;;;6.80;1.25;;;10.30;99.90;;;;;;5037116;28;20644;-77
2023/11/16 01:46:05;;;;;;;7.22;1.35;;;10.40;99.90;;;;;;5053609;28;20197;-77
2023/11/16 01:48:36;;;;;;;6.07;1.35;;;10.40;99.90;;;;;;5072046;28;20234;-77
2023/11/16 01:51:05;;;;;;;6.85;1.33;;;10.40;99.90;;;;;;5054063;28;20172;-78
2023/11/16 01:53:39;;;;;;;5.75;1.73;;;10.50;99.90;;;;;;5053850;28;20630;-78
2023/11/16 01:56:07;;;;;;;4.88;1.30;;;10.60;99.90;;;;;;5071729;28;20295;-78
2023/11/16 01:58:33;;;;;;;3.08;1.30;;;10.60;99.90;;;;;;5070602;28;20211;-77
2023/11/16 02:01:00;;;;;;;5.90;1.55;;;10.60;99.90;;;;;;5037465;28;20238;-77
2023/11/16 02:03:26;;;;;;;3.65;1.00;;;10.70;99.90;;;;;;5045306;28;20242;-77
2023/11/16 02:05:53;;;;;;;3.20;1.20;;;10.70;99.90;;;;;;5053336;28;20220;-77
2023/11/16 02:08:18;;;;;;;5.55;1.40;;;10.80;99.90;;;;;;5036472;28;20932;-77
2023/11/16 02:10:44;;;;;;;3.10;1.10;;;10.80;99.90;;;;;;5054295;28;20229;-77
2023/11/16 02:13:21;;;;;;;4.17;1.10;;;10.80;99.90;;;;;;5053634;28;20168;-77
2023/11/16 02:15:48;;;;;;;6.05;1.10;;;10.90;99.90;;;;;;5069008;28;20658;-77
2023/11/16 02:18:15;;;;;;;4.03;1.15;;;10.90;99.90;;;;;;5038281;28;20180;-77
2023/11/16 02:20:41;;;;;;;6.40;1.10;;;10.90;99.90;;;;;;5071651;28;20176;-77
2023/11/16 02:23:10;;;;;;;4.90;1.25;;;10.90;99.90;;;;;;5036642;28;20231;-77
2023/11/16 02:25:46;;;;;;;6.07;1.20;;;11.00;99.90;;;;;;5052907;28;20196;-79
2023/11/16 02:28:13;;;;;;;9.23;2.03;;;11.00;99.90;;;;;;5036969;28;20184;-79
2023/11/16 02:30:39;;;;;;;3.47;1.05;;;11.00;99.90;;;;;;5053979;28;20263;-79
2023/11/16 02:33:05;;;;;;;4.68;1.58;;;11.00;99.90;;;;;;5036498;28;20177;-79
2023/11/16 02:35:32;;;;;;;4.83;1.40;;;11.00;99.90;;;;;;5053142;28;20253;-79
2023/11/16 02:37:58;;;;;;;4.78;1.52;;;11.10;99.90;;;;;;5052928;28;20169;-79
2023/11/16 02:40:27;;;;;;;3.85;1.27;;;11.10;99.90;;;;;;5036624;28;20168;-79
2023/11/16 02:42:53;;;;;;;4.25;1.58;;;11.10;99.90;;;;;;5052871;28;20578;-79
2023/11/16 02:45:23;;;;;;;5.20;1.30;;;11.10;99.90;;;;;;5036499;28;20192;-79
2023/11/16 02:47:59;;;;;;;4.03;1.58;;;11.10;99.90;;;;;;5069838;28;21029;-79
2023/11/16 02:50:26;;;;;;;5.90;1.88;;;11.20;99.90;;;;;;5028988;28;20172;-78
2023/11/16 02:52:52;;;;;;;8.57;3.05;;;11.20;99.90;;;;;;5035388;28;20177;-78
2023/11/16 02:55:24;;;;;;;5.88;1.67;;;11.20;99.90;;;;;;5039867;28;20188;-78
2023/11/16 02:57:51;;;;;;;6.53;1.55;;;11.20;99.90;;;;;;5069471;28;20579;-78
2023/11/16 03:00:17;;;;;;;2.55;1.20;;;11.20;99.90;;;;;;5052861;28;20522;-78
2023/11/16 03:02:44;;;;;;;4.43;1.55;;;11.20;99.90;;;;;;5052332;28;20231;-79
2023/11/16 03:05:21;;;;;;;6.72;1.50;;;11.20;99.90;;;;;;5052594;28;20211;-78
2023/11/16 03:07:52;;;;;;;4.40;1.65;;;11.20;99.90;;;;;;5052443;28;20168;-78
2023/11/16 03:10:18;;;;;;;3.22;1.30;;;11.20;99.90;;;;;;5047418;28;20649;-79
2023/11/16 03:12:45;;;;;;;3.97;1.70;;;11.30;99.90;;;;;;5052236;28;20176;-78
2023/11/16 03:15:12;;;;;;;4.68;1.27;;;11.20;99.90;;;;;;5058430;28;20273;-78
2023/11/16 03:17:38;;;;;;;3.72;1.70;;;11.30;99.90;;;;;;5035558;28;20266;-78
2023/11/16 03:20:04;;;;;;;5.38;1.55;;;11.30;99.90;;;;;;5052517;28;20168;-78
2023/11/16 03:22:31;;;;;;;6.25;1.55;;;11.30;99.90;;;;;;5052249;28;20222;-78
2023/11/16 03:24:59;;;;;;;5.88;1.95;;;11.30;99.90;;;;;;5068793;28;20187;-78
2023/11/16 03:27:25;;;;;;;6.03;1.40;;;11.30;99.90;;;;;;5035446;28;20639;-78
2023/11/16 03:29:51;;;;;;;8.33;2.17;;;11.30;99.90;;;;;;5052328;28;20226;-78
2023/11/16 03:32:18;;;;;;;4.65;1.73;;;11.30;99.90;;;;;;5072870;28;20177;-78
2023/11/16 03:34:44;;;;;;;4.30;1.58;;;11.30;99.90;;;;;;5052468;28;20180;-79
2023/11/16 03:37:10;;;;;;;5.88;1.45;;;11.30;99.90;;;;;;5035499;28;20693;-78
2023/11/16 03:39:36;;;;;;;5.18;1.35;;;11.30;99.90;;;;;;5055217;28;20597;-78
2023/11/16 03:42:03;;;;;;;5.67;1.70;;;11.30;99.90;;;;;;5052011;28;20196;-78
2023/11/16 03:44:29;;;;;;;8.05;2.22;;;11.30;99.90;;;;;;5070328;28;20583;-78
2023/11/16 03:46:58;;;;;;;4.37;1.27;;;11.30;99.90;;;;;;5051995;28;20589;-78
2023/11/16 03:49:24;;;;;;;6.38;1.55;;;11.30;99.90;;;;;;5068967;28;20593;-78
2023/11/16 03:51:50;;;;;;;3.00;1.10;;;11.20;99.90;;;;;;5052040;28;20168;-79
2023/11/16 03:54:17;;;;;;;3.53;1.60;;;11.20;99.90;;;;;;5049660;28;20179;-78
2023/11/16 03:56:43;;;;;;;4.32;1.40;;;11.20;99.90;;;;;;5051465;28;20207;-78
2023/11/16 03:59:09;;;;;;;7.05;1.30;;;11.20;99.90;;;;;;5051905;28;20255;-79
2023/11/16 04:01:35;;;;;;;3.30;1.00;;;11.20;99.90;;;;;;5035163;28;20293;-79
2023/11/16 04:04:01;;;;;;;6.40;1.40;;;11.20;99.90;;;;;;5070188;28;20169;-78
2023/11/16 04:06:29;;;;;;;4.80;1.10;;;11.20;99.90;;;;;;5051905;28;20196;-80
2023/11/16 04:08:56;;;;;;;8.63;2.30;;;11.20;99.90;;;;;;5053320;28;20179;-80
2023/11/16 04:11:22;;;;;;;3.20;1.00;;;11.10;99.90;;;;;;5037048;28;20546;-80
2023/11/16 04:13:49;;;;;;;9.85;1.30;;;11.10;99.90;;;;;;5051625;28;20176;-79
2023/11/16 04:16:21;;;;;;;4.70;1.37;;;11.10;99.90;;;;;;5051804;28;20992;-80
2023/11/16 04:18:51;;;;;;;5.95;1.60;;;11.00;99.90;;;;;;5052265;28;20191;-80
2023/11/16 04:21:18;;;;;;;4.63;1.35;;;10.90;99.90;;;;;;5051933;28;20207;-80
2023/11/16 04:23:52;;;;;;;7.53;2.00;;;10.90;99.90;;;;;;5051945;28;20605;-80
2023/11/16 04:26:29;;;;;;;4.88;1.80;;;10.80;99.90;;;;;;5051423;28;20265;-79
2023/11/16 04:29:00;;;;;;;4.93;1.25;;;10.80;99.90;;;;;;5051876;28;20168;-80
2023/11/16 04:31:27;;;;;;;5.15;1.20;;;10.70;99.90;;;;;;5051518;28;20176;-80
2023/11/16 04:33:54;;;;;;;7.33;1.77;;;10.70;99.90;;;;;;5051938;28;20184;-80
2023/11/16 04:36:24;;;;;;;3.42;1.13;;;10.70;99.90;;;;;;5069648;28;20200;-80
2023/11/16 04:38:50;;;;;;;5.75;1.67;;;10.70;99.90;;;;;;5052601;28;20176;-80
2023/11/16 04:41:16;;;;;;;5.32;1.33;;;10.70;99.90;;;;;;5073205;28;20588;-80
2023/11/16 04:43:46;;;;;;;5.50;1.35;;;10.70;99.90;;;;;;5071978;28;20600;-81
2023/11/16 04:46:12;;;;;;;3.25;1.00;;;10.70;99.90;;;;;;5058319;28;20196;-80
2023/11/16 04:48:43;;;;;;;6.03;1.42;;;10.70;99.90;;;;;;5067939;28;20180;-80
2023/11/16 04:51:19;;;;;;;5.32;1.02;;;10.70;99.90;;;;;;5073016;28;20172;-80
2023/11/16 04:53:45;;;;;;;2.30;1.02;;;10.70;99.90;;;;;;5055191;28;20190;-80
2023/11/16 04:56:11;;;;;;;5.57;1.80;;;10.70;99.90;;;;;;5038556;28;20195;-80
2023/11/16 04:58:37;;;;;;;3.53;1.20;;;10.70;99.90;;;;;;5073100;28;20184;-80
2023/11/16 05:01:03;;;;;;;3.45;1.15;;;10.60;99.90;;;;;;5055161;28;20584;-81
2023/11/16 05:03:29;;;;;;;7.28;1.10;;;10.60;99.90;;;;;;5054793;28;20621;-80
2023/11/16 05:05:56;;;;;;;4.17;1.00;;;10.60;99.90;;;;;;5038208;28;20220;-81
2023/11/16 05:08:23;;;;;;;3.67;1.13;;;10.60;99.90;;;;;;5073225;28;20188;-81
2023/11/16 05:10:49;;;;;;;2.75;1.17;;;10.50;99.90;;;;;;5054897;28;20165;-81
2023/11/16 05:13:18;;;;;;;2.43;1.03;;;10.40;99.90;;;;;;5072704;28;20187;-81
2023/11/16 05:15:47;;;;;;;7.60;1.40;;;10.40;99.90;;;;;;5054559;28;20309;-79
2023/11/16 05:18:14;;;;;;;2.13;1.17;;;10.40;99.90;;;;;;5054848;28;20168;-79
2023/11/16 05:20:40;;;;;;;5.22;1.30;;;10.30;99.90;;;;;;5072691;28;20184;-79
2023/11/16 05:23:06;;;;;;;3.88;1.75;;;10.30;99.90;;;;;;5066157;28;20662;-80
2023/11/16 05:25:33;;;;;;;5.30;1.00;;;10.30;99.90;;;;;;5056610;28;20777;-80
2023/11/16 05:27:59;;;;;;;2.55;1.00;;;10.30;99.90;;;;;;5037872;28;20194;-80
2023/11/16 05:30:26;;;;;;;4.53;1.13;;;10.30;99.90;;;;;;5037608;28;20168;-79
2023/11/16 05:32:53;;;;;;;7.78;1.40;;;10.30;99.90;;;;;;5072376;28;20614;-80
2023/11/16 05:35:19;;;;;;;5.55;1.15;;;10.30;99.90;;;;;;5072041;28;20196;-79
2023/11/16 05:37:45;;;;;;;3.60;0.80;;;10.40;99.90;;;;;;5054136;28;20175;-79
2023/11/16 05:40:12;;;;;;;10.90;1.50;;;10.40;99.90;;;;;;5049165;28;20255;-79
2023/11/16 05:42:38;;;;;;;4.30;1.10;;;10.40;99.90;;;;;;5058037;28;20964;-79
2023/11/16 05:45:04;;;;;;;3.20;1.07;;;10.40;99.90;;;;;;5072300;28;20230;-79
2023/11/16 05:47:30;;;;;;;3.75;1.42;;;10.50;99.90;;;;;;5037510;28;20625;-79
2023/11/16 05:49:56;;;;;;;3.67;1.10;;;10.50;99.90;;;;;;5053002;28;20203;-80
2023/11/16 05:52:22;;;;;;;4.55;1.42;;;10.50;99.90;;;;;;5062326;28;20184;-79
2023/11/16 05:54:49;;;;;;;5.93;1.67;;;10.50;99.90;;;;;;5071818;28;20226;-80
2023/11/16 05:57:15;;;;;;;5.40;1.25;;;10.50;99.90;;;;;;5037127;28;20707;-79
2023/11/16 05:59:41;;;;;;;3.97;0.90;;;10.50;99.90;;;;;;5057805;28;20233;-79
2023/11/16 06:02:09;;;;;;;4.32;1.08;;;10.60;99.90;;;;;;5057194;28;20184;-80
2023/11/16 06:04:35;;;;;;;2.97;1.10;;;10.60;99.90;;;;;;5037998;28;20298;-80
2023/11/16 06:07:01;;;;;;;4.80;1.20;;;10.60;99.90;;;;;;5020667;28;20227;-79
2023/11/16 06:09:27;;;;;;;3.83;1.00;;;10.60;99.90;;;;;;5071988;28;20191;-79
2023/11/16 06:11:53;;;;;;;5.43;1.40;;;10.60;99.90;;;;;;5037013;28;20184;-79
2023/11/16 06:14:21;;;;;;;8.37;1.70;;;10.70;99.90;;;;;;5053781;28;20545;-79
2023/11/16 06:16:48;;;;;;;3.75;1.60;;;10.60;99.90;;;;;;5069995;28;20219;-79
2023/11/16 06:19:13;;;;;;;4.88;1.10;;;10.70;99.90;;;;;;5037600;28;20172;-79
2023/11/16 06:21:40;;;;;;;5.00;1.17;;;10.60;99.90;;;;;;5071749;28;20183;-79
2023/11/16 06:24:06;;;;;;;6.03;2.58;;;10.70;99.90;;;;;;5071683;28;20259;-79
2023/11/16 06:26:33;;;;;;;4.55;1.35;;;10.70;99.90;;;;;;5039859;28;20204;-79
2023/11/16 06:28:59;;;;;;;4.28;1.15;;;10.70;99.90;;;;;;5054307;28;20518;-79
2023/11/16 06:31:25;;;;;;;5.35;1.40;;;10.70;99.90;;;;;;5054316;28;20259;-79
2023/11/16 06:33:50;;;;;;;5.70;1.50;;;10.70;99.90;;;;;;5029226;28;20604;-78
2023/11/16 06:36:16;;;;;;;6.20;1.87;;;10.70;99.90;;;;;;5060944;28;20198;-79
2023/11/16 06:38:42;;;;;;;5.87;1.87;;;10.70;99.90;;;;;;5057112;28;20651;-79
2023/11/16 06:41:09;;;;;;;3.97;1.40;;;10.70;99.90;;;;;;5072834;28;20243;-79
2023/11/16 06:43:35;;;;;;;2.53;1.42;;;10.80;99.90;;;;;;5072457;28;20662;-78
2023/11/16 06:46:03;;;;;;;3.87;1.13;;;10.80;99.90;;;;;;5071678;28;20203;-79
2023/11/16 06:48:30;;;;;;;6.60;1.70;;;10.80;99.90;;;;;;5053897;28;20202;-80
2023/11/16 06:50:58;;;;;;;4.47;1.42;;;10.80;99.90;;;;;;5053791;28;20171;-80
2023/11/16 06:53:25;;;;;;;4.53;1.25;;;10.80;99.90;;;;;;5053625;28;20176;-80
2023/11/16 06:55:52;;;;;;;3.95;1.20;;;10.80;99.90;;;;;;5071418;28;20199;-80
2023/11/16 06:58:20;;;;;;;4.00;1.60;;;10.80;99.90;;;;;;5036903;28;20179;-80
2023/11/16 07:00:50;;;;;;;6.95;1.10;;;10.80;99.90;;;;;;5059579;28;20247;-77
2023/11/16 07:03:16;;;;;;;4.60;1.23;;;10.90;99.90;;;;;;5079269;28;20253;-77
2023/11/16 07:05:42;;;;;;;5.57;1.23;;;10.80;99.90;;;;;;5077207;28;20196;-77
2023/11/16 07:08:09;;;;;;;2.33;0.90;;;10.80;99.90;;;;;;5061153;28;20255;-77
2023/11/16 07:10:36;;;;;;;3.95;1.35;;;10.80;99.90;;;;;;5079560;28;20204;-77
2023/11/16 07:13:03;;;;;;;2.00;1.10;;;10.80;99.90;;;;;;5078299;28;20176;-77
2023/11/16 07:15:32;;;;;;;2.78;1.10;;;10.80;99.90;;;;;;5080270;28;20204;-76
2023/11/16 07:17:59;;;;;;;6.90;1.48;;;10.80;99.90;;;;;;5061277;28;20186;-76
2023/11/16 07:20:25;;;;;;;5.93;1.58;;;10.80;99.90;;;;;;5078224;28;20180;-76
2023/11/16 07:22:50;;;;;;;3.90;1.20;;;10.90;99.90;;;;;;5079676;28;20227;-76
2023/11/16 07:25:20;;;;;;;2.63;1.00;;;10.80;99.90;;;;;;5079468;28;20925;-76
2023/11/16 07:27:46;;;;;;;4.43;1.05;;;10.80;99.90;;;;;;5048536;28;20172;-77
2023/11/16 07:30:12;;;;;;;5.20;1.23;;;10.80;99.90;;;;;;5050908;28;20172;-76
2023/11/16 07:32:40;;;;;;;4.78;2.28;;;10.80;99.90;;;;;;5073124;28;20176;-76
2023/11/16 07:35:15;;;;;;;2.08;1.13;;;10.70;99.90;;;;;;5056504;28;20176;-76
2023/11/16 07:37:46;;;;;;;4.50;1.58;;;10.70;99.90;;;;;;5074752;28;20266;-76
2023/11/16 07:40:13;;;;;;;6.35;1.45;;;10.70;99.90;;;;;;5048402;28;20168;-76
2023/11/16 07:42:39;;;;;;;6.10;1.55;;;10.70;99.90;;;;;;5056246;28;20204;-76
2023/11/16 07:45:09;;;;;;;5.07;1.30;;;10.70;99.90;;;;;;5077597;28;20176;-76
2023/11/16 07:47:43;;;;;;;6.38;2.00;;;10.60;99.90;;;;;;5056297;28;20603;-76
2023/11/16 07:50:12;;;;;;;3.65;1.52;;;10.60;99.90;;;;;;5071267;28;20180;-77
2023/11/16 07:52:43;;;;;;;4.70;1.85;;;10.60;99.90;;;;;;5074085;28;20270;-77
2023/11/16 07:55:21;;;;;;;2.85;1.20;;;10.60;99.90;;;;;;5051918;28;20278;-77
2023/11/16 07:57:49;;;;;;;3.70;1.92;;;10.60;99.90;;;;;;5052284;28;20187;-77
2023/11/16 08:00:22;;;;;;;4.88;2.03;;;10.70;99.90;;;;;;5070546;28;20584;-77
2023/11/16 08:05:35;;;;;;;7.30;2.03;;;10.70;99.90;;;;;;5060631;28;20232;-77
2023/11/16 08:08:03;;;;;;;5.50;2.35;;;10.70;99.90;;;;;;5070770;28;20233;-77
2023/11/16 08:10:28;;;;;;;6.55;1.95;;;10.70;99.90;;;;;;5036859;28;20183;-77
2023/11/16 08:12:54;;;;;;;6.33;1.90;;;10.70;99.90;;;;;;5053395;28;20184;-77
2023/11/16 08:15:24;;;;;;;6.83;2.33;;;10.70;99.90;;;;;;5056822;28;20211;-77
2023/11/16 08:17:52;;;;;;;3.70;1.83;;;10.60;99.90;;;;;;5074161;28;20267;-77
2023/11/16 08:20:22;;;;;;;4.95;1.15;;;10.60;99.90;;;;;;5056763;28;20198;-77
2023/11/16 08:22:52;;;;;;;6.93;2.13;;;10.60;99.90;;;;;;5039945;28;20314;-78
2023/11/16 08:25:21;;;;;;;4.47;2.00;;;10.60;99.90;;;;;;5048035;28;20192;-78
2023/11/16 08:27:48;;;;;;;6.43;2.78;;;10.60;99.90;;;;;;5039836;28;20180;-78
2023/11/16 08:30:15;;;;;;;5.18;1.80;;;10.70;99.90;;;;;;5044188;28;20173;-78
2023/11/16 08:32:41;;;;;;;6.10;1.65;;;10.70;99.90;;;;;;5056287;28;20596;-78
2023/11/16 08:35:07;;;;;;;5.83;2.10;;;10.80;99.90;;;;;;5055778;28;20180;-78
2023/11/16 08:37:33;;;;;;;6.67;2.27;;;10.80;99.90;;;;;;5058604;28;20601;-78
2023/11/16 08:39:58;;;;;;;5.00;1.77;;;10.90;99.90;;;;;;5058126;28;20224;-78
2023/11/16 08:42:25;;;;;;;5.87;1.93;;;11.00;99.90;;;;;;5056763;28;20287;-78
2023/11/16 08:44:51;;;;;;;5.68;1.95;;;11.10;99.90;;;;;;5076342;28;20543;-78
2023/11/16 08:47:18;;;;;;;7.30;1.90;;;11.20;99.90;;;;;;5058843;28;20192;-78
2023/11/16 08:49:47;;;;;;;4.57;1.50;;;11.20;99.90;;;;;;5061716;28;20673;-77
2023/11/16 08:52:14;;;;;;;6.05;2.25;;;11.30;99.90;;;;;;5058841;28;20168;-77
2023/11/16 08:54:42;;;;;;;5.43;1.90;;;11.30;99.90;;;;;;5057433;28;20338;-77
2023/11/16 08:57:08;;;;;;;3.60;2.25;;;11.40;99.90;;;;;;5057689;28;20227;-77
2023/11/16 08:59:35;;;;;;;6.60;1.75;;;11.50;99.90;;;;;;5057943;28;20679;-79
2023/11/16 09:02:03;;;;;;;4.22;1.70;;;11.60;99.90;;;;;;5066902;28;20191;-78
2023/11/16 09:04:29;;;;;;;4.50;1.50;;;11.70;99.90;;;;;;5055226;28;20221;-77
2023/11/16 09:06:56;;;;;;;5.40;1.80;;;11.80;99.90;;;;;;5057757;28;20275;-77
2023/11/16 09:09:35;;;;;;;4.65;1.50;;;12.00;99.90;;;;;;5056844;28;20175;-77
2023/11/16 09:12:05;;;;;;;8.10;2.43;;;12.10;99.90;;;;;;5057376;28;20203;-77
2023/11/16 09:14:35;;;;;;;8.73;2.27;;;12.30;99.90;;;;;;5054614;28;20629;-77
2023/11/16 09:17:05;;;;;;;7.80;1.50;;;12.30;99.90;;;;;;5072411;28;20638;-77
2023/11/16 09:19:31;;;;;;;6.03;1.97;;;12.40;99.90;;;;;;5073179;28;20628;-77
2023/11/16 09:22:02;;;;;;;7.93;1.50;;;12.50;99.90;;;;;;5073492;28;20974;-78
2023/11/16 09:24:28;;;;;;;6.23;1.43;;;12.60;99.90;;;;;;5056479;28;20579;-77
2023/11/16 09:26:57;;;;;;;5.03;1.97;;;12.60;99.90;;;;;;5064582;28;21268;-78
2023/11/16 09:29:24;;;;;;;5.63;1.70;;;12.60;99.90;;;;;;5042794;28;20172;-77
2023/11/16 09:31:49;;;;;;;4.40;2.07;;;12.60;99.90;;;;;;5074752;28;21039;-77
2023/11/16 09:34:16;;;;;;;4.07;1.57;;;12.70;99.90;;;;;;5073525;28;20666;-77
2023/11/16 09:36:43;;;;;;;5.93;1.80;;;12.80;99.90;;;;;;5074726;28;20204;-78
2023/11/16 09:39:09;;;;;;;7.40;2.03;;;12.90;99.90;;;;;;5028087;28;20181;-77
2023/11/16 09:41:39;;;;;;;7.00;2.03;;;13.00;99.90;;;;;;5040034;28;20674;-77
2023/11/16 09:44:06;;;;;;;6.90;1.90;;;13.10;99.90;;;;;;5077807;28;20200;-77
2023/11/16 09:46:36;;;;;;;8.37;2.40;;;13.10;99.90;;;;;;5073882;28;20614;-77
2023/11/16 09:49:06;;;;;;;6.00;1.70;;;13.10;99.90;;;;;;5072884;28;21037;-77
2023/11/16 09:51:34;;;;;;;7.40;1.90;;;13.10;99.90;;;;;;5075117;28;20603;-77
2023/11/16 09:54:02;;;;;;;5.30;1.73;;;13.20;99.90;;;;;;5040852;28;20583;-77
2023/11/16 09:56:30;;;;;;;4.10;1.70;;;13.10;99.90;;;;;;5075250;28;20192;-77
2023/11/16 09:59:06;;;;;;;4.37;1.67;;;13.00;99.90;;;;;;5073967;28;20570;-77
2023/11/16 10:01:39;;;;;;;6.03;1.73;;;13.00;99.90;;;;;;5074149;28;20596;-76
2023/11/16 10:04:10;;;;;;;6.83;1.93;;;12.90;99.90;;;;;;5057400;28;20626;-77
2023/11/16 10:06:37;;;;;;;7.27;1.83;;;12.90;99.90;;;;;;5073915;28;20622;-77
2023/11/16 10:09:14;;;;;;;5.50;2.43;;;12.80;99.90;;;;;;5058070;28;20583;-77
2023/11/16 10:11:40;;;;;;;4.57;2.07;;;12.80;99.90;;;;;;5058073;28;20594;-77
2023/11/16 10:14:07;;;;;;;5.00;1.80;;;12.70;99.90;;;;;;5054937;28;20602;-77
2023/11/16 10:16:33;;;;;;;5.03;1.70;;;12.70;99.90;;;;;;5055536;28;20627;-77
2023/11/16 10:19:06;;;;;;;4.33;1.43;;;12.60;99.90;;;;;;5039188;28;20593;-77
2023/11/16 10:21:34;;;;;;;3.38;1.88;;;12.50;99.90;;;;;;5039064;28;20629;-77
2023/11/16 10:24:09;;;;;;;9.50;3.23;;;12.50;99.90;;;;;;5055375;28;20289;-77
2023/11/16 10:26:35;;;;;;;6.93;3.33;;;12.50;99.90;;;;;;5038286;28;20633;-77
2023/11/16 10:29:01;;;;;;;20.48;3.30;;;12.40;99.90;;;;;;5054517;28;20590;-78
2023/11/16 10:31:32;;;;;;;7.18;3.05;;;12.40;99.90;;;;;;5053490;28;20175;-77
2023/11/16 10:33:58;;;;;;;12.43;2.83;;;12.40;99.90;;;;;;5054297;28;20188;-77
2023/11/16 10:36:27;;;;;;;6.20;2.40;;;12.40;99.90;;;;;;5071696;28;20652;-77
2023/11/16 10:38:56;;;;;;;8.25;2.72;;;12.30;99.90;;;;;;5072660;28;20212;-77
2023/11/16 10:41:21;;;;;;;7.07;2.20;;;12.30;99.90;;;;;;5054588;28;20179;-77
2023/11/16 10:43:52;;;;;;;13.90;3.00;;;12.30;99.90;;;;;;5062098;28;20682;-78
2023/11/16 10:46:19;;;;;;;14.03;2.27;;;12.30;99.90;;;;;;5053830;28;20606;-76
2023/11/16 10:48:49;;;;;;;8.83;2.73;;;12.30;99.90;;;;;;5055310;28;20563;-76
2023/11/16 10:51:21;;;;;;;4.50;1.92;;;12.30;99.90;;;;;;5072776;28;20943;-77
2023/11/16 10:53:53;;;;;;;4.90;2.00;;;12.30;99.90;;;;;;5071829;28;20173;-76
2023/11/16 10:56:19;;;;;;;7.50;1.87;;;12.30;99.90;;;;;;5053287;28;20671;-77
2023/11/16 10:58:47;;;;;;;7.10;2.10;;;12.40;99.90;;;;;;5076088;28;20575;-77
2023/11/16 11:01:17;;;;;;;7.10;2.35;;;12.40;99.90;;;;;;5071834;28;20310;-77
2023/11/16 11:03:48;;;;;;;7.87;2.80;;;12.30;99.90;;;;;;5072323;28;20204;-76
2023/11/16 11:06:23;;;;;;;7.30;1.92;;;12.30;99.90;;;;;;5053582;28;20692;-77
2023/11/16 11:08:53;;;;;;;7.47;1.50;;;12.20;99.90;;;;;;5071429;28;20755;-77
2023/11/16 11:11:26;;;;;;;8.60;2.00;;;12.20;99.90;;;;;;5052842;28;20226;-77
2023/11/16 11:13:54;;;;;;;7.03;1.67;;;12.20;99.90;;;;;;5052719;28;20594;-77
2023/11/16 11:16:25;;;;;;;5.07;1.55;;;12.20;99.90;;;;;;5053220;28;20203;-77
2023/11/16 11:18:54;;;;;;;6.85;1.58;;;12.10;99.90;;;;;;5052908;28;20180;-78
2023/11/16 11:21:21;;;;;;;6.90;1.85;;;12.10;99.90;;;;;;5072168;28;20528;-77
2023/11/16 11:24:04;;;;;;;4.80;2.07;;;12.10;99.90;;;;;;5055390;28;20254;-78
2023/11/16 11:26:40;;;;;;;5.40;2.20;;;12.00;99.90;;;;;;5045411;28;20610;-77
2023/11/16 11:29:08;;;;;;;4.73;2.37;;;12.00;99.90;;;;;;5072029;28;20168;-77
2023/11/16 11:31:41;;;;;;;7.75;1.65;;;12.00;99.90;;;;;;5071361;28;20606;-77
2023/11/16 11:34:11;;;;;;;10.85;2.33;;;11.90;99.90;;;;;;5039988;28;20190;-78
2023/11/16 11:36:38;;;;;;;9.07;2.17;;;11.80;99.90;;;;;;5052987;28;20200;-78
2023/11/16 11:39:04;;;;;;;4.30;1.37;;;11.80;99.90;;;;;;5054867;28;20245;-77
2023/11/16 11:41:30;;;;;;;6.80;2.40;;;11.80;99.90;;;;;;5020983;28;20586;-78
2023/11/16 11:44:03;;;;;;;6.43;2.10;;;11.70;99.90;;;;;;5036144;28;20203;-78
2023/11/16 11:46:29;;;;;;;4.00;1.58;;;11.70;99.90;;;;;;5029747;28;21207;-77
2023/11/16 11:48:55;;;;;;;6.50;1.95;;;11.60;99.90;;;;;;5043531;28;20202;-77
2023/11/16 11:51:24;;;;;;;11.23;3.70;;;11.60;99.90;;;;;;5046582;28;20203;-77
2023/11/16 11:53:53;;;;;;;6.57;2.40;;;11.60;99.90;;;;;;5042973;28;20620;-78
2023/11/16 11:56:20;;;;;;;10.27;4.05;;;11.50;99.90;;;;;;5056555;28;20200;-78
2023/11/16 11:58:46;;;;;;;10.03;4.03;;;11.50;99.90;;;;;;5022969;28;20694;-78
2023/11/16 12:01:12;;;;;;;7.93;3.87;;;11.50;99.90;;;;;;5056215;28;20590;-78
2023/11/16 12:04:00;;;;;;;6.87;3.37;;;11.50;99.90;;;;;;5074118;28;20200;-77
2023/11/16 12:06:30;;;;;;;7.28;2.20;;;11.50;99.90;;;;;;5073303;28;20204;-78
2023/11/16 12:08:56;;;;;;;7.38;2.10;;;11.50;99.90;;;;;;5056235;28;20169;-77
2023/11/16 12:11:26;;;;;;;10.77;2.60;;;11.60;99.90;;;;;;5077063;28;20186;-78
2023/11/16 12:13:55;;;;;;;5.97;2.10;;;11.60;99.90;;;;;;5056304;28;20188;-77
2023/11/16 12:16:25;;;;;;;5.82;1.67;;;11.60;99.90;;;;;;5055222;28;20270;-77
2023/11/16 12:18:54;;;;;;;6.90;2.22;;;11.60;99.90;;;;;;5056116;28;20251;-77
2023/11/16 12:21:22;;;;;;;13.45;2.35;;;11.60;99.90;;;;;;5039020;28;20661;-77
2023/11/16 12:23:56;;;;;;;8.35;2.28;;;11.60;99.90;;;;;;5072647;28;20215;-77
2023/11/16 12:26:26;;;;;;;6.55;1.80;;;11.60;99.90;;;;;;5072490;28;20196;-77
2023/11/16 12:28:52;;;;;;;4.82;1.70;;;11.60;99.90;;;;;;5055963;28;20164;-78
2023/11/16 12:31:21;;;;;;;3.60;1.50;;;11.60;99.90;;;;;;5054855;28;20176;-78
2023/11/16 12:33:48;;;;;;;7.60;1.65;;;11.70;99.90;;;;;;5039760;28;20275;-77
2023/11/16 12:36:22;;;;;;;7.47;1.60;;;11.70;99.90;;;;;;5074454;28;20214;-78
2023/11/16 12:38:48;;;;;;;13.00;2.60;;;11.70;99.90;;;;;;5074050;28;20180;-78
2023/11/16 12:41:15;;;;;;;8.95;2.47;;;11.70;99.90;;;;;;5073824;28;20168;-78
2023/11/16 12:43:42;;;;;;;7.38;2.50;;;11.70;99.90;;;;;;5055823;28;20266;-78
2023/11/16 12:46:08;;;;;;;6.88;2.58;;;11.70;99.90;;;;;;5056470;28;20216;-78
2023/11/16 12:48:34;;;;;;;10.20;2.93;;;11.70;99.90;;;;;;5061527;28;20179;-78
2023/11/16 12:50:59;;;;;;;5.57;1.83;;;11.80;99.90;;;;;;5074313;28;20602;-77
2023/11/16 12:53:26;;;;;;;6.03;1.83;;;11.80;99.90;;;;;;5038130;28;20172;-77